Details From LJLJ - Ljubljana
To LXGB - Gibraltar
Flight Number -
Tags Generated
Created
Modified
Stats Distance 1,086 nm / 2,011 km
Max Altitude 0 ft / 0 m
Waypoints 6
Social Downloads 1
Likes 0
Share VATSIM

Download

Looking for another format? Having issues loading an existing format? Contact us
Advertisement - Login to hide

Notes

Generated

Route

LJLJ TIGLO AGENA ASTRO BRIKE LXGB

ID Type Via Altitude Latitude Longitude Leg Dist Tot Dist Heading (true) Name
O LJLJ APT - 0 ft / 0 m 46.23249˚ 14.44039˚ - 0 nm - -
TIGLO FIX - 0 ft / 0 m 44.29278˚ 9.38667˚ 243 nm 243 nm 243° / 240° -
AGENA FIX - 0 ft / 0 m 41.54482˚ 3.48861˚ 307 nm 550 nm 240° / 236° -
ASTRO FIX - 0 ft / 0 m 39.02438˚ -1.26300˚ 265 nm 815 nm 237° / 234° -
BRIKE FIX - 0 ft / 0 m 36.50478˚ -5.41645˚ 248 nm 1064 nm 234° / 231° -
O LXGB APT - 0 ft / 0 m 36.15080˚ -5.35977˚ 21 nm 1085 nm 173° / 173° -

Altitude Profile

Advertisement - Login to hide

Weather


0- 5 10 15 20 25 30 35+ Temperature / ° C

Clouds and Precipitation
Forecast for 2017-12-14 00:00 UTC. Updated an hour ago

Ground ~20,000 ft ~40,000 ft Winds

LJLJ

Details ICAO LJLJ (LJU)
Name LJUBLJANA
Region Slovenia
Timezone Europe/Ljubljana (UTC+1.0)
Stats Elevation 1,273 ft / 388 m (AMSL)
Location 46.223685° 14.457608°
Runways 1
Magnetic Variation 3.661° E

METAR

LJLJ 132230Z 26003KT 210V300 3000 BR SCT003 BKN030 00/00 Q1011 R30/29//95 NOSIG

Decode

TAF

TAF TAF LJLJ 132000Z 1321/1421 30003KT 7000 FEW003 OVC035 TEMPO 1321/1323 3500 -SN BR BKN010 OVC020 TEMPO 1323/1410 3500 -RA BR BKN010 OVC020 PROB40 TEMPO 1321/1408 0500 FZFG BECMG 1408/1410 27005KT 9999 TEMPO 1412/1418 27010KT SCT035 TEMPO 1416/1421 7000 SHRA SCT030TCU BKN035

Decode

Departure Runways

ID Width Length Bearing (true) Bearing (mag) Surface Threshold Offset Overrun Length
13 148 ft / 45 m 10,811 ft / 3,295 m 126.47° 122.81° Asphalt 0 ft / 0 m 0 ft / 0 m
31 148 ft / 45 m 10,811 ft / 3,295 m 306.49° 302.83° Asphalt 0 ft / 0 m 0 ft / 0 m

LXGB

Details ICAO LXGB (GIB)
Name Gibraltar
Region Gibralter
Timezone Europe/Gibraltar (UTC+1.0)
Stats Elevation 15 ft / 5 m (AMSL)
Location 36.151209° -5.349664°
Runways 1
Magnetic Variation 1.123° W

METAR

LXGB 132150Z AUTO 26006KT 9999 // NCD 11/09 Q1028

Decode

TAF

Not found

Destination Runways

ID Width Length Bearing (true) Bearing (mag) Surface Threshold Offset Overrun Length
27 151 ft / 46 m 5,992 ft / 1,826 m 267.56° 268.68° Asphalt 367 ft / 112 m 89 ft / 27 m
9 151 ft / 46 m 5,992 ft / 1,826 m 87.54° 88.66° Asphalt 299 ft / 91 m 52 ft / 16 m

Popular Alternatives